AirNav   Airventure
 
 1596 users online  

7CO6 Vantage View Airport
Rush, Colorado, USA


FAA INFORMATION EFFECTIVE 20 JULY 2017

Location

FAA Identifier: 7CO6
Lat/Long: 38-45-37.0000N / 104-06-05.0000W
38-45.616667N / 104-06.083333W
38.7602778 / -104.1013889
(estimated)
Elevation: 5780 ft. / 1762 m (estimated)
From city: 5 miles S of RUSH, CO
Time zone: UTC -6 (UTC -7 during Standard Time)
Zip code: 80864

Airport Operations

Airport use: Private use. Permission required prior to landing
Activation date: 08/2009
Control tower: no
ARTCC: DENVER CENTER
FSS: DENVER FLIGHT SERVICE STATION
Attendance: UNATNDD
Segmented circle: no

Airport Communications

WX ASOS at CO90 (9 nm W): 121.425 (719-683-3346)

Nearby radio navigation aids

VOR radial/distance  VOR name  Freq  Var
HGOr254/22.7HUGO VOR/DME112.1007E
BRKr106/27.2BLACK FOREST VOR/DME112.5008E
FCSr069/31.1BUTTS VOR/DME108.8012E
PUBr021/31.9PUEBLO VORTAC116.7008E

 
NDB name  Hdg/Dist  Freq  Var  ID
IRONHORSE069/30.933512EIHS .. .... ...

Airport Services

Runway Information

Runway 17/35

Dimensions: 2200 x 75 ft. / 671 x 23 m
Surface: turf
RUNWAY 17  RUNWAY 35
Traffic pattern: leftleft

Airport Ownership and Management from official FAA records

Ownership: Privately-owned
Owner: SAM DUPRE
18205 GRAY MARE LANE
PEYTON, CO 80831
Phone 719-362-3349
Manager: SAM DUPRE
18205 GRAY MARE LANE
PEYTON, CO 80831
Phone 719-362-3349

Additional Remarks

OWNER DESIRES ARPT NOT BE CHARTED.

Instrument Procedures

There are no published instrument procedures at 7CO6.

Some nearby airports with instrument procedures:

KCOS - City of Colorado Springs Municipal Airport (28 nm W)
KPUB - Pueblo Memorial Airport (34 nm SW)
KLHX - La Junta Municipal Airport (51 nm SE)
1V6 - Fremont County Airport (51 nm SW)
KAPA - Centennial Airport (60 nm NW)
 
Loc | Ops | Rwys | IFR | FBO | Links
Com | Nav | Svcs | Stats | Notes


 
Aerial photo
No photo
 
Sectional chart

 
Airport distance calculator
Flying to Vantage View Airport? Find the distance to fly.

From to 7CO6

Sunrise and sunset
Times for 26-Jul-2017
 Local
(UTC-6)
 Zulu
(UTC)
Morning civil twilight05:2311:23
Sunrise05:5311:53
Sunset20:1202:12
Evening civil twilight20:4202:42

Current date and time
Zulu (UTC)  26-Jul-2017 20:08:53
Local (UTC-6)  26-Jul-2017 14:08:53
 
METAR
KFLY 
25nm NW 
261955Z AUTO 00000KT 10SM 25/12 A3034 RMK AO2 LTG DSNT W T02500123
KCOS 
29nm W 
261954Z 22003KT 10SM TS FEW028 BKN046CB BKN120 26/15 A3028 RMK AO2 SLP161 OCNL LTGICCG VC SW TSB11 TS VC SW MOV E T02560150
KFCS 
32nm W 
261958Z AUTO 32010KT 10SM -DZ FEW065 BKN100 24/16 A3024 RMK AO2 LTG DSNT SE AND NW DZB50 TSB14E46 SLP185 P0000 T02400157 $
KPUB 
34nm SW 
261953Z 35007G17KT 330V060 10SM CLR 33/14 A3013 RMK AO2 SLP127 T03330144
KAFF 
36nm W 
261958Z 01003KT 10SM VCTS FEW045 SCT130 26/14 A3029 RMK AO2A SLP164 T02640143
KLIC 
37nm NE 
261955Z AUTO 34013G18KT 10SM CLR 27/17 A3023 RMK AO2 SLP156 T02720167
KMNH 
37nm NW 
261951Z AUTO 36007KT 10SM SCT040 SCT100 23/13 A3036 RMK AO2 LTG DSNT SW
TAF
KCOS 
29nm W 
261756Z 2618/2718 13008KT P6SM SCT060 SCT200 FM262000 12012KT P6SM VCTS SCT060CB BKN140 TEMPO 2622/2702 VRB20G35KT 3SM TSRA SCT030 OVC060CB FM270200 03012KT P6SM VCTS SCT040CB OVC090 TEMPO 2702/2706 VRB15G25KT 5SM SHRA BKN040 FM270600 06008KT P6SM VCSH SCT020 OVC040 FM271200 13008KT P6SM OVC020
KFCS 
32nm W 
261302Z 2613/2719 35009KT 9999 BKN120 QNH3018INS BECMG 2614/2615 01009KT 9999 SCT030 BKN050 QNH3023INS BECMG 2618/2619 09012G18KT 6000 -SHRA VCTS BKN030CB OVC040 QNH3019INS TEMPO 2621/2703 VRB25G35KT 4800 -TSRAGS BECMG 2702/2703 01009KT 4800 -SHRA BR SCT010 BKN020 QNH3030INS BECMG 2708/2709 18009KT 6000 -SHRA BR BKN010 OVC030 QNH3031INS BECMG 2714/2715 15009KT 9999 NSW BKN010 OVC030 QNH3031INS BECMG 2717/2718 15009KT 9999 SCT020 BKN030 QNH3029INS TX28/2620Z TN16/2613Z
KPUB 
34nm SW 
261756Z 2618/2718 06008KT P6SM FEW080 SCT200 FM262100 08012KT P6SM VCTS SCT080CB BKN150 TEMPO 2700/2704 VRB20G35KT 3SM TSRA BKN050CB FM270400 01010KT P6SM VCSH SCT050 BKN090 TEMPO 2704/2708 5SM SHRA BKN040 FM271000 08008KT P6SM SCT020 OVC040
KAFF 
36nm W 
261102Z 2611/2717 35012KT 9999 BKN120 510009 QNH3021INS BECMG 2614/2615 01009KT 9999 SCT060 BKN120 QNH3030INS BECMG 2618/2619 05010KT 8000 -SHRA VCTS SCT030CB BKN050 BKN100 QNH3028INS TEMPO 2620/2702 VRB15G30KT 1600 -TSRAGS BECMG 2702/2703 01009KT 4800 -SHRA BR BKN020 QNH3031INS BECMG 2709/2710 11009KT 8000 -SHRA BR BKN010 OVC030 QNH3034INS BECMG 2714/2715 15009KT 9999 NSW BKN010 OVC030 QNH3035INS TX25/2619Z TN15/2611Z
NOTAMs
Click for the latest NOTAMs
NOTAMs are issued by the DoD/FAA and will open in a separate window not controlled by AirNav.

 

 
 

Would you like to see your business listed on this page?

 If your business provides an interesting product or service to pilots, flight crews, aircraft, or users of the Vantage View Airport, you should consider listing it here.  To start the listing process, click on the button below
 
Add a business
 

Other Pages about Vantage View Airport

Update a link
 
Copyright © AirNav, LLC. All rights reserved. Privacy Policy  Contact